Kongwa Airport


Codes: HTKO/
Name: Kongwa Airport
City: Kongwa
Country: Tanzania
Elevation: 3300 ft.

Photos at Kongwa Airport


   Photos courtesy of SpottingLog. You can add your own sightings and photos by signing up for a free trial today.



No photos found.

Weather at Kongwa Airport


Time (UTC)DescriptionTempratureWindCloud coverageVisibilityPressureHumidity
23-May-2024 18:00Broken Clouds18°C4 mph, E79%10000m1018hPa88%
23-May-2024 21:00Broken Clouds18°C4 mph, E69%10000m1018hPa90%
24-May-2024 00:00Broken Clouds17°C2 mph, E58%10000m1017hPa93%
24-May-2024 03:00Overcast Clouds16°C2 mph, E96%10000m1018hPa96%
24-May-2024 06:00Overcast Clouds22°C4 mph, SE98%10000m1019hPa70%
24-May-2024 09:00Overcast Clouds26°C7 mph, SE98%10000m1016hPa50%
24-May-2024 12:00Overcast Clouds26°C7 mph, SE94%10000m1013hPa50%
24-May-2024 15:00Broken Clouds23°C7 mph, SE81%10000m1014hPa64%
24-May-2024 18:00Broken Clouds19°C7 mph, SE80%10000m1017hPa85%
24-May-2024 21:00Few Clouds17°C4 mph, E19%10000m1017hPa93%
25-May-2024 00:00Scattered Clouds16°C2 mph, E43%10000m1017hPa93%
25-May-2024 03:00Overcast Clouds15°C2 mph, E88%10000m1018hPa93%
25-May-2024 06:00Broken Clouds22°C4 mph, SE68%10000m1019hPa64%
25-May-2024 09:00Scattered Clouds28°C7 mph, SE42%10000m1016hPa43%
25-May-2024 12:00Scattered Clouds29°C7 mph, SE38%10000m1012hPa38%
25-May-2024 15:00Scattered Clouds23°C9 mph, SE45%10000m1014hPa63%
25-May-2024 18:00Broken Clouds18°C7 mph, SE56%10000m1017hPa88%
25-May-2024 21:00Broken Clouds17°C4 mph, E68%10000m1018hPa91%
26-May-2024 00:00Broken Clouds16°C4 mph, E77%10000m1016hPa91%
26-May-2024 03:00Broken Clouds15°C2 mph, E63%10000m1018hPa95%
26-May-2024 06:00Broken Clouds21°C4 mph, SE79%10000m1019hPa65%
26-May-2024 09:00Scattered Clouds27°C7 mph, SE26%10000m1017hPa45%
26-May-2024 12:00Few Clouds28°C7 mph, SE23%10000m1013hPa42%
26-May-2024 15:00Scattered Clouds23°C9 mph, SE47%10000m1015hPa61%
26-May-2024 18:00Broken Clouds20°C7 mph, SE63%10000m1018hPa75%
26-May-2024 21:00Overcast Clouds19°C4 mph, E99%10000m1018hPa74%
27-May-2024 00:00Overcast Clouds18°C4 mph, E85%10000m1017hPa75%
27-May-2024 03:00Few Clouds16°C4 mph, E20%10000m1019hPa86%
27-May-2024 06:00Few Clouds21°C7 mph, E23%10000m1020hPa65%
27-May-2024 09:00Overcast Clouds26°C7 mph, SE89%10000m1017hPa47%
27-May-2024 12:00Overcast Clouds28°C9 mph, SE94%10000m1014hPa44%
27-May-2024 15:00Overcast Clouds23°C9 mph, SE100%10000m1016hPa64%
27-May-2024 18:00Overcast Clouds19°C7 mph, SE99%10000m1019hPa82%
27-May-2024 21:00Overcast Clouds17°C4 mph, E100%10000m1019hPa87%
28-May-2024 00:00Overcast Clouds17°C4 mph, E94%10000m1017hPa83%
28-May-2024 03:00Scattered Clouds16°C4 mph, E50%10000m1020hPa90%
28-May-2024 06:00Broken Clouds21°C7 mph, SE64%10000m1021hPa66%
28-May-2024 09:00Overcast Clouds25°C9 mph, SE88%10000m1019hPa51%
28-May-2024 12:00Broken Clouds27°C9 mph, SE71%10000m1015hPa47%
28-May-2024 15:00Broken Clouds22°C9 mph, SE58%10000m1017hPa64%